Time;durP1;ratioP1;P1;durP2;ratioP2;P2;SDS_P1;SDS_P2;PMS_P1;PMS_P2;Temp;Humidity;BMP_temperature;BMP_pressure;BME280_temperature;BME280_humidity;BME280_pressure;Samples;Min_cycle;Max_cycle;Signal;HPM_P1;HPM_P2
2022/02/02 00:00:58;;;;;;;;;;;3.20;1.40;;;3.35;100.00;94969.89;653545;216;25170;-76
2022/02/02 00:03:41;;;;;;;;;;;3.20;1.40;;;3.37;100.00;94986.17;653530;216;25424;-75
2022/02/02 00:06:29;;;;;;;;;;;3.30;1.40;;;3.37;100.00;94985.47;647634;216;25199;-75
2022/02/02 00:09:08;;;;;;;;;;;3.30;1.40;;;3.38;100.00;94970.09;621347;226;25344;-76
2022/02/02 00:12:10;;;;;;;;;;;3.20;1.40;;;3.30;100.00;94961.34;654341;212;25368;-75
2022/02/02 00:17:34;;;;;;;;;;;3.20;1.40;;;3.27;100.00;94964.67;641476;220;25305;-75
2022/02/02 00:20:13;;;;;;;;;;;3.10;1.40;;;3.24;100.00;94993.02;653850;216;25170;-76
2022/02/02 00:22:53;;;;;;;;;;;2.90;1.40;;;3.12;100.00;95004.36;654222;216;25200;-74
2022/02/02 00:25:36;;;;;;;;;;;2.80;1.40;;;3.06;100.00;94985.45;651121;212;25166;-75
2022/02/02 00:28:17;;;;;;;;;;;2.70;1.40;;;2.97;100.00;94988.59;655271;212;25408;-77
2022/02/02 00:31:03;;;;;;;;;;;2.50;1.40;;;2.84;100.00;94989.88;652890;216;25170;-78
2022/02/02 00:36:00;;;;;;;;;;;2.50;1.40;;;2.80;100.00;94993.14;652646;212;25281;-75
2022/02/02 00:38:41;;;;;;;;;;;2.50;1.40;;;2.89;100.00;94992.13;653790;212;24829;-76
2022/02/02 00:41:22;;;;;;;;;;;2.50;1.40;;;2.90;100.00;94996.36;653179;216;24732;-77
2022/02/02 00:44:04;;;;;;;;;;;2.60;1.40;;;2.99;100.00;95008.32;656841;216;24746;-77
2022/02/02 00:46:45;;;;;;;;;;;2.70;1.40;;;3.03;100.00;94983.10;652553;216;24818;-74
2022/02/02 00:49:32;;;;;;;;;;;2.80;1.40;;;3.02;100.00;94955.09;651547;212;24835;-74
2022/02/02 00:52:20;;;;;;;;;;;2.70;1.40;;;3.00;100.00;94960.94;654563;216;25300;-77
2022/02/02 00:55:03;;;;;;;;;;;2.80;1.40;;;3.06;100.00;94981.39;655427;212;24828;-75
2022/02/02 00:57:44;;;;;;;;;;;3.00;1.40;;;3.05;100.00;94961.36;652297;212;24728;-77
2022/02/02 01:00:25;;;;;;;;;;;2.90;1.40;;;3.10;100.00;94972.02;652221;216;24831;-74
2022/02/02 01:03:13;;;;;;;;;;;3.00;1.40;;;3.18;100.00;94969.56;650245;215;24816;-77
2022/02/02 01:06:02;;;;;;;;;;;3.00;1.40;;;3.12;100.00;94950.42;653131;216;24901;-74
2022/02/02 01:08:55;;;;;;;;;;;3.00;1.40;;;3.12;100.00;94944.38;652638;212;25236;-76
2022/02/02 01:11:54;;;;;;;;;;;3.00;1.40;;;3.15;100.00;94957.01;653455;212;24755;-77
2022/02/02 01:20:35;;;;;;;;;;;3.00;1.40;;;3.16;100.00;94949.80;652633;216;24857;-76
2022/02/02 01:29:31;;;;;;;;;;;3.00;1.40;;;3.16;100.00;94949.64;621822;229;24856;-77
2022/02/02 01:32:13;;;;;;;;;;;3.10;1.40;;;3.14;100.00;94931.09;653499;212;25409;-77
2022/02/02 01:35:53;;;;;;;0.40;0.30;;;3.00;1.40;;;3.16;100.00;94950.63;646789;216;31529;-76
2022/02/02 01:38:36;;;;;;;0.60;0.40;;;3.00;1.40;;;3.16;100.00;94945.87;646769;212;31594;-76
2022/02/02 01:41:23;;;;;;;0.60;0.40;;;3.10;1.40;;;3.14;100.00;94946.56;647644;216;31614;-76
2022/02/02 01:44:09;;;;;;;0.50;0.40;;;3.00;1.40;;;3.20;100.00;94935.17;646949;216;31505;-76
2022/02/02 01:46:42;;;;;;;0.50;0.30;;;3.10;1.40;;;3.17;100.00;94918.69;619370;226;32360;-77
2022/02/02 01:52:39;;;;;;;0.50;0.40;;;3.20;1.40;;;3.23;100.00;94916.26;646389;216;31526;-76
2022/02/02 01:55:03;;;;;;;0.40;0.20;;;3.20;1.40;;;3.18;100.00;94917.02;648637;216;31716;-74
2022/02/02 01:58:02;;;;;;;0.40;0.30;;;3.10;1.40;;;3.18;100.00;94908.40;645805;216;31576;-77
2022/02/02 02:00:29;;;;;;;0.52;0.47;;;3.10;1.40;;;3.24;100.00;94920.38;647480;212;32057;-77
2022/02/02 02:03:12;;;;;;;0.40;0.30;;;3.10;1.40;;;3.30;100.00;94915.92;649497;216;31507;-77
2022/02/02 02:05:58;;;;;;;0.70;0.60;;;3.30;1.40;;;3.34;100.00;94922.92;644798;212;32391;-76
2022/02/02 02:08:41;;;;;;;0.40;0.30;;;3.20;1.40;;;3.37;100.00;94940.25;649672;216;32529;-76
2022/02/02 02:11:22;;;;;;;0.50;0.40;;;3.30;1.40;;;3.35;100.00;94915.61;648139;212;32122;-76
2022/02/02 02:14:37;;;;;;;0.50;0.50;;;3.20;1.40;;;3.42;100.00;94925.23;644810;216;31536;-74
2022/02/02 02:16:51;;;;;;;0.40;0.20;;;3.40;1.40;;;3.43;100.00;94930.00;646617;212;31516;-74
2022/02/02 02:19:43;;;;;;;0.40;0.30;;;3.40;1.40;;;3.46;100.00;94911.83;647290;216;33319;-77
2022/02/02 02:22:31;;;;;;;0.40;0.40;;;3.40;1.40;;;3.45;100.00;94912.95;648443;216;31478;-77
2022/02/02 02:25:19;;;;;;;;;;;3.30;1.40;;;3.52;100.00;94904.52;656722;212;25017;-77
2022/02/02 02:31:10;;;;;;;;;;;3.40;1.40;;;3.56;100.00;94916.27;653626;216;24805;-76
2022/02/02 02:36:24;;;;;;;1.20;1.00;;;3.50;1.40;;;3.57;100.00;94930.58;647192;212;31484;-77
2022/02/02 02:38:51;;;;;;;;;;;3.40;1.40;;;3.62;100.00;94927.29;655764;216;24807;-76
2022/02/02 02:58:39;;;;;;;;;;;3.50;1.40;;;3.71;100.00;94962.69;650360;217;24827;-76
2022/02/02 03:01:24;;;;;;;;;;;3.50;1.40;;;3.67;100.00;94956.37;653016;216;24906;-77
2022/02/02 03:32:31;;;;;;;;;;;3.30;1.40;;;3.49;100.00;94934.27;655921;212;24820;-74
2022/02/02 03:50:08;;;;;;;;;;;3.50;1.40;;;3.67;100.00;94941.91;650928;216;25181;-77
2022/02/02 03:53:20;;;;;;;;;;;3.50;1.40;;;3.62;100.00;94929.81;649696;215;24928;-77
2022/02/02 03:55:41;;;;;;;;;;;3.50;1.40;;;3.69;100.00;94926.78;655414;212;24856;-78
2022/02/02 03:58:25;;;;;;;;;;;3.60;1.40;;;3.65;100.00;94930.97;654371;212;24909;-74
2022/02/02 04:04:15;;;;;;;;;;;3.50;1.40;;;3.65;100.00;94940.63;653610;212;25044;-74
2022/02/02 04:06:59;;;;;;;;;;;3.40;1.40;;;3.66;100.00;94966.46;637957;220;25028;-76
2022/02/02 04:09:47;;;;;;;;;;;3.50;1.40;;;3.67;100.00;94974.61;652645;216;25466;-74
2022/02/02 04:12:42;;;;;;;;;;;3.40;1.40;;;3.66;100.00;94965.70;653881;216;24847;-74
2022/02/02 04:37:25;;;;;;;;;;;3.30;1.40;;;3.51;100.00;94954.95;653564;212;24984;-74
2022/02/02 04:39:04;;;;;;;;;;;3.00;1.40;;;3.25;100.00;94955.73;657504;216;24726;-79
2022/02/02 04:53:12;;;;;;;;;;;3.00;1.40;;;3.27;100.00;94938.00;654150;216;24844;-75
2022/02/02 04:55:28;;;;;;;;;;;3.10;1.40;;;3.22;100.00;94954.88;648613;219;25017;-74
2022/02/02 04:58:16;;;;;;;;;;;3.10;1.40;;;3.25;100.00;94957.08;654299;216;24813;-77
2022/02/02 05:01:28;;;;;;;;;;;3.10;1.40;;;3.29;100.00;94960.98;654655;216;24834;-77
2022/02/02 05:04:16;;;;;;;;;;;3.10;1.40;;;3.36;100.00;94944.59;651801;212;24803;-75
2022/02/02 05:06:52;;;;;;;;;;;3.20;1.40;;;3.42;100.00;94953.05;646147;216;25224;-76
2022/02/02 05:09:46;;;;;;;;;;;3.30;1.40;;;3.34;100.00;94961.40;654791;212;25297;-77
2022/02/02 05:12:59;;;;;;;;;;;3.20;1.40;;;3.37;100.00;94951.56;654538;216;24878;-77
2022/02/02 05:24:41;;;;;;;;;;;3.20;1.40;;;3.28;100.00;94942.23;654708;212;25234;-76
2022/02/02 05:44:58;;;;;;;;;;;3.00;1.40;;;3.14;100.00;94965.15;657336;216;24814;-75
2022/02/02 05:52:53;;;;;;;;;;;3.00;1.40;;;3.21;100.00;94973.80;655131;216;24840;-75
2022/02/02 05:55:34;;;;;;;;;;;3.10;1.40;;;3.30;100.00;94975.49;650831;214;24814;-77
2022/02/02 05:58:25;;;;;;;;;;;3.20;1.40;;;3.38;100.00;94969.72;652854;216;24812;-75
2022/02/02 06:01:12;;;;;;;;;;;3.30;1.40;;;3.48;100.00;94979.72;652834;212;24852;-78
2022/02/02 06:03:55;;;;;;;;;;;3.30;1.40;;;3.44;100.00;94984.81;649029;217;24839;-77
2022/02/02 06:06:37;;;;;;;;;;;3.30;1.40;;;3.52;100.00;94990.21;651717;216;24807;-77
2022/02/02 06:09:18;;;;;;;;;;;3.40;1.40;;;3.55;100.00;94983.97;654803;216;24727;-76
2022/02/02 06:12:00;;;;;;;;;;;3.40;1.40;;;3.62;100.00;95010.42;655588;216;24749;-78
2022/02/02 06:14:42;;;;;;;;;;;3.50;1.40;;;3.69;100.00;95006.17;622967;224;24864;-77
2022/02/02 06:17:24;;;;;;;;;;;3.60;1.40;;;3.78;100.00;95013.79;654506;216;25558;-78
2022/02/02 06:20:12;;;;;;;;;;;3.60;1.40;;;3.88;100.00;94993.92;626988;225;25004;-76
2022/02/02 06:23:01;;;;;;;;;;;3.80;1.40;;;3.93;100.00;95013.61;653764;216;24722;-77
2022/02/02 06:25:45;;;;;;;;;;;3.80;1.40;;;4.00;100.00;95029.19;654216;216;24992;-77
2022/02/02 06:28:33;;;;;;;;;;;3.80;1.40;;;4.05;100.00;95038.30;654162;216;24815;-74
2022/02/02 06:31:19;;;;;;;;;;;3.80;1.40;;;4.00;100.00;95055.05;653357;216;24760;-75
2022/02/02 06:35:51;;;;;;;0.50;0.50;;;3.60;1.40;;;3.96;100.00;95070.34;619162;225;42472;-77
2022/02/02 06:38:38;;;;;;;1.73;1.02;;;3.70;1.40;;;3.88;100.00;95082.02;647921;212;31586;-73
2022/02/02 06:41:25;;;;;;;;;;;3.70;1.40;;;3.76;100.00;95100.06;657639;216;24809;-78
2022/02/02 06:44:12;;;;;;;;;;;3.60;1.40;;;3.67;100.00;95105.41;652997;212;25601;-75
2022/02/02 06:46:59;;;;;;;;;;;3.40;1.40;;;3.59;100.00;95113.23;654223;212;25363;-78
2022/02/02 06:49:44;;;;;;;;;;;3.40;1.40;;;3.58;100.00;95118.65;649695;215;24856;-78
2022/02/02 06:52:25;;;;;;;;;;;3.30;1.40;;;3.56;100.00;95107.93;653557;212;24823;-76
2022/02/02 06:55:21;;;;;;;;;;;3.30;1.40;;;3.51;100.00;95109.62;653949;216;24716;-75
2022/02/02 06:58:12;;;;;;;;;;;3.30;1.40;;;3.57;100.00;95123.05;652841;216;24889;-76
2022/02/02 07:01:02;;;;;;;;;;;3.40;1.40;;;3.60;100.00;95133.23;653862;216;25059;-78
2022/02/02 07:03:58;;;;;;;;;;;3.50;1.40;;;3.61;100.00;95116.39;655206;216;24845;-74
2022/02/02 07:06:48;;;;;;;;;;;3.50;1.40;;;3.52;100.00;95118.03;647619;212;24854;-77
2022/02/02 07:09:32;;;;;;;;;;;3.40;1.40;;;3.43;100.00;95117.71;649396;214;24891;-77
2022/02/02 07:12:23;;;;;;;;;;;3.30;1.40;;;3.37;100.00;95116.42;653324;212;24726;-78
2022/02/02 07:15:16;;;;;;;;;;;3.20;1.40;;;3.38;100.00;95121.52;652357;216;25424;-78
2022/02/02 07:17:50;;;;;;;;;;;3.20;1.40;;;3.40;100.00;95122.16;649662;214;24835;-77
2022/02/02 07:20:35;;;;;;;;;;;3.20;1.40;;;3.45;100.00;95120.39;652332;212;25445;-74
2022/02/02 07:26:30;;;;;;;;;;;3.20;1.40;;;3.49;100.00;95124.52;652401;216;24818;-74
2022/02/02 07:31:53;;;;;;;;;;;3.20;1.40;;;3.48;100.00;95117.66;653057;216;24820;-76
2022/02/02 07:36:09;;;;;;;2.75;0.47;;;3.20;1.40;;;3.38;100.00;95120.45;646729;216;31527;-75
2022/02/02 07:39:12;;;;;;;1.90;0.55;;;3.20;1.40;;;3.43;100.00;95133.68;646026;216;31508;-76
2022/02/02 07:41:51;;;;;;;;;;;3.20;1.40;;;3.39;100.00;95120.39;653131;212;24818;-76
2022/02/02 07:44:36;;;;;;;;;;;3.30;1.40;;;3.40;100.00;95115.14;653768;216;25271;-74
2022/02/02 07:47:17;;;;;;;;;;;3.20;1.40;;;3.42;100.00;95113.64;651364;212;24833;-75
2022/02/02 07:50:00;;;;;;;;;;;3.30;1.40;;;3.42;100.00;95106.41;654546;212;24799;-79
2022/02/02 07:52:46;;;;;;;;;;;3.30;1.40;;;3.49;100.00;95127.84;654028;212;24823;-77
2022/02/02 07:55:29;;;;;;;;;;;3.30;1.40;;;3.57;100.00;95147.54;652470;212;24810;-75
2022/02/02 07:58:12;;;;;;;;;;;3.40;1.40;;;3.64;100.00;95153.59;653174;212;24824;-75
2022/02/02 08:00:58;;;;;;;;;;;3.40;1.40;;;3.70;100.00;95147.38;655104;216;25290;-77
2022/02/02 08:03:43;;;;;;;;;;;3.30;1.40;;;3.77;100.00;95148.91;656031;216;24794;-78
2022/02/02 08:06:25;;;;;;;;;;;3.50;1.40;;;3.76;100.00;95139.73;642192;220;25072;-76
2022/02/02 08:09:19;;;;;;;;;;;3.60;1.40;;;3.63;100.00;95149.09;647559;219;24844;-73
2022/02/02 08:11:54;;;;;;;;;;;3.50;1.40;;;3.62;100.00;95167.42;652846;216;24863;-74
2022/02/02 08:14:42;;;;;;;;;;;3.40;1.40;;;3.59;100.00;95160.41;654652;216;24850;-77
2022/02/02 08:17:24;;;;;;;;;;;3.40;1.40;;;3.54;100.00;95163.14;652737;212;24814;-77
2022/02/02 08:20:09;;;;;;;;;;;3.40;1.40;;;3.53;100.00;95169.16;649049;215;24843;-73
2022/02/02 08:22:56;;;;;;;;;;;3.30;1.40;;;3.42;100.00;95166.84;654846;216;24834;-77
2022/02/02 08:25:39;;;;;;;;;;;3.20;1.40;;;3.38;100.00;95173.86;654716;212;24735;-77
2022/02/02 08:28:22;;;;;;;;;;;3.20;1.40;;;3.40;100.00;95164.48;653883;212;24976;-77
2022/02/02 08:31:02;;;;;;;;;;;3.30;1.40;;;3.46;100.00;95181.70;655302;212;24807;-75
2022/02/02 08:35:54;;;;;;;2.60;0.50;;;3.50;1.40;;;3.71;100.00;95187.64;648400;216;31566;-74
2022/02/02 08:38:43;;;;;;;;;;;3.70;1.40;;;3.88;100.00;95194.05;654174;212;24906;-76
2022/02/02 08:41:25;;;;;;;;;;;3.90;1.40;;;4.02;100.00;95217.51;658067;212;24911;-77
2022/02/02 08:44:03;;;;;;;;;;;4.10;1.40;;;4.21;100.00;95210.48;655800;212;24916;-78
2022/02/02 08:46:55;;;;;;;;;;;4.40;1.40;;;4.53;100.00;95214.67;651226;216;24816;-74
2022/02/02 08:49:30;;;;;;;;;;;4.60;1.40;;;4.73;100.00;95220.45;654034;216;24940;-74
2022/02/02 08:52:15;;;;;;;;;;;4.90;1.40;;;4.91;100.00;95219.44;656527;212;24793;-77
2022/02/02 08:55:06;;;;;;;;;;;5.00;1.40;;;4.99;100.00;95224.89;650778;212;25217;-74
2022/02/02 08:58:07;;;;;;;;;;;5.00;1.40;;;5.10;100.00;95218.16;651887;212;25007;-74
2022/02/02 09:00:34;;;;;;;;;;;5.00;1.40;;;5.10;100.00;95224.60;654812;216;25356;-74
2022/02/02 09:06:05;;;;;;;;;;;4.70;1.40;;;4.83;100.00;95229.37;652112;216;25314;-74
2022/02/02 09:08:51;;;;;;;;;;;4.70;1.40;;;5.10;100.00;95218.53;652621;212;24841;-74
2022/02/02 09:25:42;;;;;;;;;;;4.30;1.40;;;4.71;100.00;95220.07;652801;212;24724;-74
2022/02/02 09:31:27;;;;;;;;;;;4.50;1.40;;;4.81;100.00;95216.06;654184;216;24864;-78
2022/02/02 09:35:57;;;;;;;;;;;4.60;1.40;;;5.00;100.00;95246.80;622025;229;25068;-76
2022/02/02 09:38:38;;;;;;;;;;;5.20;1.40;;;6.02;100.00;95245.83;655319;216;24811;-77
2022/02/02 09:41:31;;;;;;;;;;;6.00;1.40;;;5.68;100.00;95241.90;655461;212;24809;-75
2022/02/02 09:44:13;;;;;;;;;;;5.00;1.40;;;5.28;100.00;95252.60;653853;216;24840;-77
2022/02/02 09:47:00;;;;;;;;;;;4.80;1.40;;;5.06;100.00;95256.11;652759;212;24827;-74
2022/02/02 09:49:49;;;;;;;;;;;4.60;1.40;;;4.93;100.00;95262.63;654729;212;24910;-75
2022/02/02 09:52:23;;;;;;;;;;;4.50;1.40;;;4.85;100.00;95266.63;654537;212;24820;-74
2022/02/02 09:55:11;;;;;;;;;;;4.40;1.40;;;4.83;100.00;95277.99;646354;218;24968;-75
2022/02/02 10:04:15;;;;;;;;;;;4.10;1.40;;;4.40;100.00;95303.72;638624;217;24761;-76
2022/02/02 10:09:52;;;;;;;;;;;3.80;1.40;;;4.22;100.00;95308.95;655853;216;24795;-79
2022/02/02 10:12:45;;;;;;;;;;;3.70;1.40;;;4.17;100.00;95302.19;652731;216;25331;-74
2022/02/02 10:15:15;;;;;;;;;;;3.80;1.40;;;4.36;100.00;95306.08;651949;216;25367;-74
2022/02/02 10:17:57;;;;;;;;;;;3.90;1.40;;;4.37;100.00;95299.10;653165;212;24854;-74
2022/02/02 10:20:38;;;;;;;;;;;4.00;1.40;;;4.39;100.00;95308.98;652959;216;24913;-73
2022/02/02 10:23:30;;;;;;;;;;;4.00;1.40;;;4.50;100.00;95312.17;621850;224;25391;-74
2022/02/02 10:26:17;;;;;;;;;;;4.30;1.40;;;4.63;100.00;95314.19;653126;216;25334;-74
2022/02/02 10:28:58;;;;;;;;;;;4.40;1.40;;;4.70;100.00;95316.04;653393;212;25336;-75
2022/02/02 10:31:40;;;;;;;;;;;4.50;1.40;;;4.78;100.00;95309.74;653314;212;24823;-76
2022/02/02 10:35:51;;;;;;;;;;;4.50;1.40;;;4.80;100.00;95316.83;653756;216;24776;-75
2022/02/02 10:38:46;;;;;;;;;;;4.50;1.40;;;4.82;100.00;95324.66;653017;216;24908;-73
2022/02/02 10:41:31;;;;;;;;;;;4.40;1.40;;;4.82;100.00;95325.63;653714;212;25138;-74
2022/02/02 10:44:03;;;;;;;;;;;4.50;1.40;;;4.82;100.00;95323.97;652471;212;24919;-74
2022/02/02 10:49:50;;;;;;;;;;;4.60;1.40;;;4.91;100.00;95339.13;652465;212;24925;-75
2022/02/02 10:52:36;;;;;;;;;;;4.60;1.40;;;4.92;100.00;95335.26;652715;212;24821;-74
2022/02/02 10:58:29;;;;;;;;;;;4.70;1.40;;;4.91;100.00;95338.70;653560;212;25091;-73
2022/02/02 11:01:23;;;;;;;;;;;4.60;1.40;;;4.84;100.00;95341.72;652579;216;24819;-74
2022/02/02 11:06:51;;;;;;;;;;;4.60;1.40;;;4.98;100.00;95351.14;648005;216;24943;-74
2022/02/02 11:09:32;;;;;;;;;;;4.80;1.40;;;5.00;100.00;95348.13;654277;216;24914;-74
2022/02/02 11:12:13;;;;;;;;;;;4.80;1.40;;;5.01;100.00;95359.52;653200;213;25304;-76
2022/02/02 11:15:04;;;;;;;;;;;4.80;1.40;;;5.12;100.00;95354.10;652432;212;24749;-73
2022/02/02 11:17:50;;;;;;;;;;;5.00;1.40;;;5.10;100.00;95351.15;654456;212;24820;-73
2022/02/02 11:20:31;;;;;;;;;;;4.90;1.40;;;5.12;100.00;95356.47;653825;216;24821;-73
2022/02/02 11:23:12;;;;;;;;;;;4.90;1.40;;;5.14;100.00;95346.41;654036;216;24826;-74
2022/02/02 11:25:55;;;;;;;;;;;4.90;1.40;;;5.21;100.00;95363.19;649486;215;24822;-74
2022/02/02 11:28:36;;;;;;;;;;;5.00;1.40;;;5.32;100.00;95359.82;653469;216;24825;-76
2022/02/02 11:31:20;;;;;;;;;;;5.00;1.40;;;5.28;100.00;95358.49;653227;216;24751;-74
2022/02/02 11:35:52;;;;;;;2.80;0.90;;;5.00;1.40;;;5.34;100.00;95351.86;646567;212;32361;-74
2022/02/02 11:38:37;;;;;;;2.60;0.90;;;5.10;1.40;;;5.39;100.00;95359.86;646646;212;31603;-74
2022/02/02 11:41:35;;;;;;;2.60;0.80;;;5.10;1.40;;;5.65;100.00;95357.83;646281;212;31513;-74
2022/02/02 11:44:18;;;;;;;1.30;1.20;;;5.40;1.40;;;5.71;100.00;95350.80;648119;216;31885;-75
2022/02/02 11:47:07;;;;;;;5.40;1.20;;;5.30;1.40;;;5.74;100.00;95349.71;631549;217;31839;-74
2022/02/02 11:49:55;;;;;;;0.70;0.60;;;5.20;1.40;;;5.65;100.00;95342.88;646050;216;31635;-75
2022/02/02 11:52:42;;;;;;;;;;;5.10;1.40;;;5.56;100.00;95355.62;653160;216;24776;-75
2022/02/02 11:55:43;;;;;;;;;;;5.10;1.40;;;5.40;100.00;95363.75;654692;216;24823;-75
2022/02/02 11:58:26;;;;;;;;;;;5.00;1.40;;;5.43;100.00;95363.63;653170;212;24728;-74
2022/02/02 12:01:16;;;;;;;;;;;5.10;1.40;;;5.57;100.00;95355.41;652990;212;24846;-77
2022/02/02 12:04:08;;;;;;;;;;;5.40;1.40;;;5.79;100.00;95352.46;653299;216;24735;-74
2022/02/02 12:06:53;;;;;;;;;;;6.00;1.40;;;6.01;100.00;95355.90;650200;216;24842;-74
2022/02/02 12:09:28;;;;;;;;;;;5.80;1.40;;;6.51;100.00;95352.95;653234;216;24936;-77
2022/02/02 12:50:28;;;;;;;0.70;0.60;;;5.80;1.40;;;6.36;100.00;95374.90;646687;216;31549;-75
2022/02/02 12:56:12;;;;;;;2.17;0.70;;;6.10;1.40;;;6.33;100.00;95374.75;646280;216;31524;-76
2022/02/02 12:58:33;;;;;;;1.30;0.67;;;5.70;1.40;;;6.10;100.00;95384.37;619783;222;32119;-76
2022/02/02 13:01:09;;;;;;;1.70;1.00;;;5.60;1.40;;;6.12;100.00;95391.36;647072;216;31869;-76
2022/02/02 13:03:51;;;;;;;1.30;0.90;;;5.50;1.40;;;6.00;100.00;95383.23;619818;226;32062;-76
2022/02/02 13:06:32;;;;;;;0.60;0.47;;;5.60;1.40;;;6.08;100.00;95391.42;642202;212;31657;-75
2022/02/02 13:09:15;;;;;;;1.60;0.80;;;5.60;1.40;;;5.99;100.00;95389.22;647359;216;31585;-76
2022/02/02 13:11:57;;;;;;;3.40;1.10;;;5.50;1.40;;;5.99;100.00;95388.95;646232;212;32215;-75
2022/02/02 13:14:48;;;;;;;1.58;0.75;;;5.30;1.40;;;5.93;100.00;95382.66;646113;216;31675;-77
2022/02/02 13:17:20;;;;;;;1.80;0.70;;;5.30;1.40;;;5.87;100.00;95377.76;647362;216;31481;-75
2022/02/02 13:20:02;;;;;;;1.70;1.20;;;5.30;1.40;;;5.88;100.00;95379.74;620218;225;32221;-75
2022/02/02 13:22:52;;;;;;;0.70;0.50;;;5.30;1.40;;;5.76;100.00;95378.80;617606;224;42542;-80
2022/02/02 13:25:35;;;;;;;1.50;0.70;;;5.30;1.40;;;5.84;100.00;95377.98;645395;216;31486;-76
2022/02/02 13:28:36;;;;;;;0.80;0.80;;;5.30;1.40;;;5.87;100.00;95384.22;643979;216;31505;-81
2022/02/02 13:36:16;;;;;;;3.00;1.30;;;5.40;1.40;;;5.88;100.00;95397.39;616683;226;31952;-80
2022/02/02 13:39:14;;;;;;;1.30;1.00;;;5.40;1.40;;;5.81;100.00;95411.09;645942;212;31634;-75
2022/02/02 13:44:55;;;;;;;0.62;0.62;;;5.30;1.40;;;5.61;100.00;95410.17;645416;216;31550;-75
2022/02/02 13:47:54;;;;;;;1.83;1.07;;;5.30;1.40;;;5.75;100.00;95421.09;619587;226;31887;-78
2022/02/02 13:50:56;;;;;;;2.50;0.40;;;5.30;1.40;;;5.76;100.00;95429.69;619021;226;31983;-77
2022/02/02 13:53:54;;;;;;;2.35;0.55;;;5.30;1.40;;;5.85;100.00;95420.17;620561;226;42445;-77
2022/02/02 13:56:57;;;;;;;2.50;0.93;;;5.40;1.40;;;5.90;100.00;95430.13;646105;216;31528;-75
2022/02/02 14:02:13;;;;;;;1.00;0.90;;;5.60;1.40;;;5.87;100.00;95446.03;646788;216;31491;-77
2022/02/02 14:07:45;;;;;;;5.57;1.00;;;5.40;1.40;;;5.64;100.00;95470.94;638447;216;32517;-76
2022/02/02 14:10:30;;;;;;;3.90;1.70;;;5.30;1.40;;;5.55;100.00;95493.24;621037;222;31893;-80
2022/02/02 14:32:37;;;;;;;1.42;0.85;;;4.50;1.40;;;5.11;100.00;95510.53;647096;216;31501;-76
2022/02/02 14:35:55;;;;;;;0.95;0.60;;;5.10;1.40;;;5.00;100.00;95515.45;648680;212;31817;-79
2022/02/02 14:38:40;;;;;;;2.53;0.80;;;4.60;1.40;;;4.85;100.00;95517.91;620290;222;32079;-78
2022/02/02 14:41:21;;;;;;;1.70;1.05;;;4.60;1.40;;;4.87;100.00;95520.64;620430;222;31873;-79
2022/02/02 14:46:55;;;;;;;1.15;1.05;;;4.70;1.40;;;5.00;100.00;95527.53;619287;226;32640;-75
2022/02/02 14:49:33;;;;;;;3.10;0.60;;;5.00;1.40;;;5.51;100.00;95526.81;646887;216;31466;-75
2022/02/02 14:52:22;;;;;;;2.62;1.10;;;6.00;1.40;;;6.26;100.00;95520.89;647614;216;31532;-76
2022/02/02 14:55:24;;;;;;;2.70;0.75;;;6.80;1.40;;;6.60;100.00;95527.03;645418;216;31549;-76
2022/02/02 15:06:50;;;;;;;2.30;0.90;;;6.40;1.40;;;6.63;100.00;95552.55;637534;214;31839;-79
2022/02/02 15:26:09;;;;;;;2.00;0.50;;;6.10;1.40;;;6.60;100.00;95590.77;646277;212;31505;-75
2022/02/02 15:28:15;;;;;;;1.03;1.00;;;6.00;1.40;;;6.53;100.00;95598.92;641961;217;32098;-75
2022/02/02 15:31:00;;;;;;;0.77;0.70;;;5.90;1.40;;;6.40;100.00;95605.78;647706;216;31572;-76
2022/02/02 15:36:02;;;;;;;1.50;0.80;;;5.80;1.40;;;6.27;100.00;95611.13;645765;216;42204;-75
2022/02/02 15:38:34;;;;;;;1.25;0.60;;;5.80;1.40;;;6.24;100.00;95614.20;646754;216;42133;-76
2022/02/02 15:41:21;;;;;;;0.70;0.70;;;5.70;1.40;;;6.18;100.00;95615.19;646098;216;42139;-75
2022/02/02 15:58:17;;;;;;;2.45;1.55;;;5.10;1.40;;;5.48;100.00;95652.16;644923;216;42349;-76
2022/02/02 16:01:52;;;;;;;0.82;0.82;;;5.00;1.40;;;5.24;100.00;95655.69;645317;212;31771;-76
2022/02/02 16:03:54;;;;;;;1.85;1.10;;;4.80;1.40;;;5.06;100.00;95656.85;646825;212;31499;-75
2022/02/02 16:06:34;;;;;;;1.10;1.00;;;4.60;1.40;;;5.16;100.00;95665.96;643927;212;32185;-78
2022/02/02 16:09:26;;;;;;;5.50;3.10;;;4.70;1.40;;;5.05;100.00;95665.28;642454;219;31525;-76
2022/02/02 16:12:08;;;;;;;2.33;1.58;;;4.60;1.40;;;4.95;100.00;95676.89;646715;212;42741;-75
2022/02/02 16:14:51;;;;;;;2.67;1.77;;;4.50;1.40;;;4.99;100.00;95672.70;645654;216;31552;-77
2022/02/02 16:17:44;;;;;;;7.03;1.52;;;4.50;1.40;;;5.00;100.00;95669.97;646404;216;32214;-77
2022/02/02 16:36:02;;;;;;;2.53;1.65;;;4.10;1.40;;;4.48;100.00;95685.43;641725;217;31659;-76
2022/02/02 16:38:39;;;;;;;1.70;0.77;;;4.00;1.40;;;4.48;100.00;95688.22;646178;212;31567;-76
2022/02/02 16:44:15;;;;;;;2.00;1.15;;;4.00;1.40;;;4.45;100.00;95697.35;646587;216;32121;-75
2022/02/02 16:46:57;;;;;;;1.00;0.90;;;4.10;1.40;;;4.53;100.00;95693.34;645825;216;31534;-75
2022/02/02 16:49:39;;;;;;;1.15;1.05;;;4.10;1.40;;;4.33;100.00;95699.16;647447;212;31567;-75
2022/02/02 16:52:24;;;;;;;1.90;0.90;;;3.90;1.40;;;4.41;100.00;95705.33;646600;212;32153;-76
2022/02/02 16:55:16;;;;;;;1.10;1.00;;;4.10;1.40;;;4.36;100.00;95690.75;646918;216;31607;-77
2022/02/02 16:58:03;;;;;;;1.60;0.73;;;4.10;1.40;;;4.35;100.00;95702.29;647458;212;32325;-78
2022/02/02 17:32:15;;;;;;;0.50;0.50;;;3.30;1.40;;;3.69;100.00;95727.47;618696;226;31949;-78
2022/02/02 17:42:26;;;;;;;3.85;0.75;;;3.30;1.40;;;3.80;100.00;95744.92;620490;226;31954;-78
2022/02/02 18:13:51;;;;;;;3.15;0.85;;;3.80;1.40;;;4.04;100.00;95784.31;646874;216;31530;-77
2022/02/02 18:18:52;;;;;;;1.40;1.02;;;3.80;1.40;;;4.02;100.00;95799.11;647759;216;32316;-79
2022/02/02 18:21:30;;;;;;;3.20;1.10;;;3.70;1.40;;;4.11;100.00;95798.25;619617;222;31886;-79
2022/02/02 18:24:22;;;;;;;0.60;0.60;;;3.90;1.40;;;4.22;100.00;95807.52;619406;226;31983;-75
2022/02/02 18:27:04;;;;;;;1.45;1.35;;;3.90;1.40;;;4.25;100.00;95808.30;646146;216;32315;-77
2022/02/02 18:29:52;;;;;;;2.97;0.60;;;4.00;1.40;;;4.24;100.00;95803.19;646307;212;31774;-75
2022/02/02 18:32:41;;;;;;;1.80;0.70;;;4.00;1.40;;;4.30;100.00;95806.05;647725;216;31586;-79
2022/02/02 18:36:18;;;;;;;2.60;0.73;;;4.10;1.40;;;4.38;100.00;95806.55;646991;212;31642;-77
2022/02/02 18:44:38;;;;;;;0.80;0.70;;;4.10;1.40;;;4.45;100.00;95812.83;647061;212;31509;-77
2022/02/02 18:47:12;;;;;;;3.00;1.20;;;4.10;1.40;;;4.48;100.00;95810.73;646317;216;31557;-75
2022/02/02 18:50:04;;;;;;;1.10;1.00;;;4.20;1.40;;;4.53;100.00;95818.13;618769;222;31959;-77
2022/02/02 18:52:58;;;;;;;0.90;0.90;;;4.20;1.40;;;4.49;100.00;95826.14;647051;216;31505;-79
2022/02/02 18:55:36;;;;;;;1.55;0.70;;;4.20;1.40;;;4.44;100.00;95839.66;647877;212;31552;-78
2022/02/02 18:58:19;;;;;;;0.75;0.75;;;4.10;1.40;;;4.32;100.00;95845.47;647455;212;32096;-77
2022/02/02 19:01:04;;;;;;;1.00;0.90;;;3.90;1.40;;;4.32;100.00;95865.48;620749;226;31990;-78
2022/02/02 19:04:01;;;;;;;0.80;0.80;;;3.90;1.40;;;4.26;100.00;95880.16;646835;212;31777;-76
2022/02/02 19:37:18;;;;;;;;;;;2.90;1.40;;;3.38;100.00;95883.36;653496;212;25741;-74
2022/02/02 19:39:39;;;;;;;1.50;1.08;;;2.70;1.40;;;3.29;100.00;95879.04;646744;212;32556;-77
2022/02/02 19:52:56;;;;;;;0.40;0.35;;;3.00;1.40;;;3.55;100.00;95883.28;646661;216;31526;-77
2022/02/02 19:55:33;;;;;;;1.70;1.40;;;3.10;1.40;;;3.53;100.00;95891.52;646512;212;31519;-75
2022/02/02 20:04:00;;;;;;;;;;;3.20;1.40;;;3.48;100.00;95885.53;652877;216;25639;-76
2022/02/02 20:06:41;;;;;;;;;;;3.10;1.40;;;3.46;100.00;95879.88;648152;216;25126;-78
2022/02/02 20:09:36;;;;;;;;;;;3.00;1.40;;;3.43;100.00;95879.03;653708;216;25266;-78
2022/02/02 20:12:03;;;;;;;;;;;3.00;1.40;;;3.30;100.00;95880.13;653891;216;24803;-78
2022/02/02 20:14:45;;;;;;;;;;;2.90;1.40;;;3.20;100.00;95883.14;655384;216;24827;-77
2022/02/02 20:17:27;;;;;;;;;;;2.70;1.40;;;3.01;100.00;95875.84;652475;216;25037;-76